createdAt,value
2017-07-30T00:00:03.147Z,988.73
2017-07-30T00:01:03.180Z,988.71
2017-07-30T00:02:03.206Z,988.69
2017-07-30T00:03:03.240Z,988.67
2017-07-30T00:04:03.267Z,988.7
2017-07-30T00:05:03.302Z,988.67
2017-07-30T00:06:03.331Z,988.66
2017-07-30T00:07:03.361Z,988.62
2017-07-30T00:08:03.388Z,988.65
2017-07-30T00:09:03.417Z,988.59
2017-07-30T00:10:03.449Z,988.64
2017-07-30T00:11:03.477Z,988.62
2017-07-30T00:12:03.505Z,988.59
2017-07-30T00:13:03.537Z,988.62
2017-07-30T00:14:03.566Z,988.56
2017-07-30T00:15:03.596Z,988.54
2017-07-30T00:16:03.625Z,988.56
2017-07-30T00:17:03.652Z,988.57
2017-07-30T00:18:03.682Z,988.55
2017-07-30T00:19:03.716Z,988.57
2017-07-30T00:20:03.744Z,988.56
2017-07-30T00:21:03.773Z,988.54
2017-07-30T00:22:03.801Z,988.56
2017-07-30T00:23:03.834Z,988.5
2017-07-30T00:24:03.863Z,988.51
2017-07-30T00:25:03.892Z,988.52
2017-07-30T00:26:03.922Z,988.55
2017-07-30T00:27:03.949Z,988.48
2017-07-30T00:28:03.980Z,988.54
2017-07-30T00:29:04.016Z,988.53
2017-07-30T00:30:04.040Z,988.56
2017-07-30T00:31:04.069Z,988.53
2017-07-30T00:32:04.096Z,988.54
2017-07-30T00:33:04.130Z,988.55
2017-07-30T00:34:04.159Z,988.52
2017-07-30T00:35:04.189Z,988.51
2017-07-30T00:36:04.217Z,988.53
2017-07-30T00:37:04.244Z,988.52
2017-07-30T00:38:04.275Z,988.49
2017-07-30T00:39:04.307Z,988.48
2017-07-30T00:40:04.337Z,988.47
2017-07-30T00:41:04.366Z,988.53
2017-07-30T00:42:04.395Z,988.49
2017-07-30T00:43:04.419Z,988.47
2017-07-30T00:44:04.456Z,988.46
2017-07-30T00:45:04.486Z,988.45
2017-07-30T00:46:04.514Z,988.46
2017-07-30T00:47:04.543Z,988.45
2017-07-30T00:48:04.572Z,988.47
2017-07-30T00:49:04.603Z,988.46
2017-07-30T00:50:04.632Z,988.4
2017-07-30T00:51:04.661Z,988.41
2017-07-30T00:52:04.690Z,988.44
2017-07-30T00:53:04.720Z,988.42
2017-07-30T00:54:04.748Z,988.39
2017-07-30T00:55:04.781Z,988.43
2017-07-30T00:56:04.810Z,988.43
2017-07-30T00:57:04.839Z,988.41
2017-07-30T00:58:04.867Z,988.38
2017-07-30T00:59:04.891Z,988.39
2017-07-30T01:00:04.928Z,988.43
2017-07-30T01:01:04.953Z,988.36
2017-07-30T01:02:04.988Z,988.37
2017-07-30T01:03:05.016Z,988.37
2017-07-30T01:04:05.044Z,988.34
2017-07-30T01:05:05.074Z,988.38
2017-07-30T01:06:05.104Z,988.36
2017-07-30T01:07:05.430Z,988.34
2017-07-30T01:08:05.164Z,988.37
2017-07-30T01:09:05.193Z,988.38
2017-07-30T01:10:05.221Z,988.39
2017-07-30T01:11:05.254Z,988.35
2017-07-30T01:12:05.533Z,988.36
2017-07-30T01:13:05.312Z,988.31
2017-07-30T01:14:05.340Z,988.3
2017-07-30T01:15:05.365Z,988.31
2017-07-30T01:16:05.398Z,988.27
2017-07-30T01:17:05.729Z,988.25
2017-07-30T01:18:05.460Z,988.26
2017-07-30T01:19:05.489Z,988.23
2017-07-30T01:20:05.518Z,988.21
2017-07-30T01:21:05.546Z,988.19
2017-07-30T01:22:05.874Z,988.19
2017-07-30T01:23:05.607Z,988.2
2017-07-30T01:24:05.628Z,988.12
2017-07-30T01:25:05.670Z,988.12
2017-07-30T01:26:05.694Z,988.1
2017-07-30T01:27:05.967Z,988.11
2017-07-30T01:28:05.750Z,988.08
2017-07-30T01:29:05.778Z,988.07
2017-07-30T01:30:05.812Z,988.13
2017-07-30T01:31:05.839Z,988.09
2017-07-30T01:32:06.123Z,988.09
2017-07-30T01:33:05.899Z,988.11
2017-07-30T01:34:05.929Z,988.1
2017-07-30T01:35:05.958Z,988.1
2017-07-30T01:36:05.987Z,988.12
2017-07-30T01:37:06.266Z,988.13
2017-07-30T01:38:06.040Z,988.09
2017-07-30T01:39:06.074Z,988.12
2017-07-30T01:40:06.107Z,988.12
2017-07-30T01:41:06.135Z,988.08
2017-07-30T01:42:06.418Z,988.1
2017-07-30T01:43:06.192Z,988.12
2017-07-30T01:44:06.224Z,988.06
2017-07-30T01:45:06.296Z,988.03
2017-07-30T01:46:06.282Z,988.02
2017-07-30T01:47:06.585Z,988.01
2017-07-30T01:48:06.341Z,987.98
2017-07-30T01:49:06.369Z,988.02
2017-07-30T01:50:06.399Z,988.02
2017-07-30T01:51:06.427Z,987.98
2017-07-30T01:52:06.706Z,987.92
2017-07-30T01:53:06.486Z,987.91
2017-07-30T01:54:06.518Z,987.91
2017-07-30T01:55:06.544Z,987.89
2017-07-30T01:56:06.577Z,987.88
2017-07-30T01:57:06.900Z,987.87
2017-07-30T01:58:06.634Z,987.93
2017-07-30T01:59:06.663Z,987.93
2017-07-30T02:00:06.690Z,987.93
2017-07-30T02:01:06.720Z,987.93
2017-07-30T02:02:07.000Z,987.95
2017-07-30T02:03:06.781Z,987.92
2017-07-30T02:04:06.810Z,987.88
2017-07-30T02:05:06.839Z,987.91
2017-07-30T02:06:06.863Z,987.86
2017-07-30T02:07:07.147Z,987.89
2017-07-30T02:08:06.922Z,987.87
2017-07-30T02:09:06.956Z,987.85
2017-07-30T02:10:06.983Z,987.85
2017-07-30T02:11:07.012Z,987.89
2017-07-30T02:12:07.041Z,987.89
2017-07-30T02:13:07.072Z,987.86
2017-07-30T02:14:07.101Z,987.82
2017-07-30T02:15:07.132Z,987.81
2017-07-30T02:16:07.161Z,987.86
2017-07-30T02:17:07.189Z,987.86
2017-07-30T02:18:07.217Z,987.83
2017-07-30T02:19:07.246Z,987.87
2017-07-30T02:20:07.272Z,987.84
2017-07-30T02:21:07.303Z,987.86
2017-07-30T02:22:07.333Z,987.89
2017-07-30T02:23:07.367Z,987.9
2017-07-30T02:24:07.390Z,987.89
2017-07-30T02:25:07.425Z,987.89
2017-07-30T02:26:07.453Z,987.9
2017-07-30T02:27:07.477Z,987.85
2017-07-30T02:28:07.510Z,987.85
2017-07-30T02:29:07.534Z,987.89
2017-07-30T02:30:07.568Z,987.92
2017-07-30T02:31:07.597Z,987.92
2017-07-30T02:32:07.626Z,987.95
2017-07-30T02:33:07.657Z,987.92
2017-07-30T02:34:07.688Z,987.88
2017-07-30T02:35:07.716Z,987.9
2017-07-30T02:36:07.746Z,987.86
2017-07-30T02:37:07.775Z,987.89
2017-07-30T02:38:07.803Z,987.88
2017-07-30T02:39:07.831Z,987.91
2017-07-30T02:40:07.861Z,987.9
2017-07-30T02:41:07.889Z,987.87
2017-07-30T02:42:07.917Z,987.83
2017-07-30T02:43:07.941Z,987.8
2017-07-30T02:44:07.976Z,987.85
2017-07-30T02:45:08.013Z,987.86
2017-07-30T02:46:08.036Z,987.86
2017-07-30T02:47:08.066Z,987.82
2017-07-30T02:48:08.095Z,987.82
2017-07-30T02:49:08.122Z,987.82
2017-07-30T02:50:08.154Z,987.82
2017-07-30T02:51:08.182Z,987.85
2017-07-30T02:52:08.204Z,987.8
2017-07-30T02:53:08.244Z,987.79
2017-07-30T02:54:08.269Z,987.81
2017-07-30T02:55:08.297Z,987.81
2017-07-30T02:56:08.327Z,987.87
2017-07-30T02:57:08.359Z,987.84
2017-07-30T02:58:08.387Z,987.8
2017-07-30T02:59:08.416Z,987.78
2017-07-30T03:00:08.444Z,987.81
2017-07-30T03:01:08.474Z,987.82
2017-07-30T03:02:08.498Z,987.77
2017-07-30T03:03:08.532Z,987.83
2017-07-30T03:04:08.556Z,987.78
2017-07-30T03:05:08.589Z,987.78
2017-07-30T03:06:08.619Z,987.81
2017-07-30T03:07:08.647Z,987.77
2017-07-30T03:08:08.676Z,987.82
2017-07-30T03:09:08.707Z,987.77
2017-07-30T03:10:08.738Z,987.82
2017-07-30T03:11:08.761Z,987.85
2017-07-30T03:12:08.794Z,987.86
2017-07-30T03:13:08.826Z,987.82
2017-07-30T03:14:08.852Z,987.76
2017-07-30T03:15:08.881Z,987.71
2017-07-30T03:16:08.905Z,987.72
2017-07-30T03:17:08.941Z,987.76
2017-07-30T03:18:08.969Z,987.76
2017-07-30T03:19:08.993Z,987.84
2017-07-30T03:20:09.025Z,987.94
2017-07-30T03:21:09.058Z,987.98
2017-07-30T03:22:09.087Z,988
2017-07-30T03:23:09.117Z,988.02
2017-07-30T03:24:09.145Z,988
2017-07-30T03:25:09.174Z,988
2017-07-30T03:26:09.491Z,987.97
2017-07-30T03:27:09.226Z,987.96
2017-07-30T03:28:09.260Z,987.95
2017-07-30T03:29:09.288Z,988
2017-07-30T03:30:09.318Z,988.02
2017-07-30T03:31:09.347Z,988.01
2017-07-30T03:32:09.376Z,988
2017-07-30T03:33:09.408Z,987.97
2017-07-30T03:34:09.437Z,987.93
2017-07-30T03:35:09.466Z,987.92
2017-07-30T03:36:09.500Z,987.94
2017-07-30T03:37:09.523Z,987.94
2017-07-30T03:38:09.552Z,987.94
2017-07-30T03:39:09.577Z,987.97
2017-07-30T03:40:09.610Z,987.94
2017-07-30T03:41:09.639Z,987.94
2017-07-30T03:42:09.667Z,987.97
2017-07-30T03:43:09.996Z,987.97
2017-07-30T03:44:09.726Z,987.99
2017-07-30T03:45:09.758Z,988
2017-07-30T03:46:09.779Z,987.98
2017-07-30T03:47:09.815Z,988.02
2017-07-30T03:48:10.096Z,987.97
2017-07-30T03:49:09.870Z,987.97
2017-07-30T03:50:09.903Z,987.96
2017-07-30T03:51:09.930Z,987.94
2017-07-30T03:52:09.960Z,987.97
2017-07-30T03:53:10.240Z,987.99
2017-07-30T03:54:10.018Z,987.98
2017-07-30T03:55:10.045Z,988
2017-07-30T03:56:10.075Z,987.94
2017-07-30T03:57:10.102Z,987.95
2017-07-30T03:58:10.129Z,987.93
2017-07-30T03:59:10.161Z,987.94
2017-07-30T04:00:10.193Z,987.97
2017-07-30T04:01:10.218Z,987.99
2017-07-30T04:02:10.253Z,988.04
2017-07-30T04:03:10.282Z,988.02
2017-07-30T04:04:10.310Z,988
2017-07-30T04:05:10.339Z,988.01
2017-07-30T04:06:10.368Z,988.05
2017-07-30T04:07:10.392Z,988.06
2017-07-30T04:08:10.426Z,988.04
2017-07-30T04:09:10.454Z,988.05
2017-07-30T04:10:10.483Z,988.02
2017-07-30T04:11:10.511Z,988.02
2017-07-30T04:12:10.541Z,988.04
2017-07-30T04:13:10.569Z,988.03
2017-07-30T04:14:10.600Z,987.98
2017-07-30T04:15:10.629Z,987.99
2017-07-30T04:16:10.656Z,988.04
2017-07-30T04:17:10.684Z,988.06
2017-07-30T04:18:10.718Z,988.03
2017-07-30T04:19:10.742Z,988.07
2017-07-30T04:20:10.776Z,988.1
2017-07-30T04:21:10.808Z,988.16
2017-07-30T04:22:10.833Z,988.1
2017-07-30T04:23:10.862Z,988.13
2017-07-30T04:24:10.890Z,988.2
2017-07-30T04:25:10.919Z,988.16
2017-07-30T04:26:10.946Z,988.19
2017-07-30T04:27:10.977Z,988.16
2017-07-30T04:28:11.005Z,988.17
2017-07-30T04:29:11.035Z,988.2
2017-07-30T04:30:11.066Z,988.21
2017-07-30T04:31:11.092Z,988.19
2017-07-30T04:32:11.121Z,988.12
2017-07-30T04:33:11.150Z,988.14
2017-07-30T04:34:11.180Z,988.19
2017-07-30T04:35:11.207Z,988.15
2017-07-30T04:36:11.241Z,988.19
2017-07-30T04:37:11.266Z,988.18
2017-07-30T04:38:11.299Z,988.16
2017-07-30T04:39:11.325Z,988.18
2017-07-30T04:40:11.356Z,988.19
2017-07-30T04:41:11.385Z,988.21
2017-07-30T04:42:11.414Z,988.21
2017-07-30T04:43:11.442Z,988.23
2017-07-30T04:44:11.472Z,988.24
2017-07-30T04:45:11.504Z,988.28
2017-07-30T04:46:11.529Z,988.24
2017-07-30T04:47:11.558Z,988.27
2017-07-30T04:48:11.587Z,988.25
2017-07-30T04:49:11.616Z,988.26
2017-07-30T04:50:11.644Z,988.26
2017-07-30T04:51:11.672Z,988.24
2017-07-30T04:52:11.701Z,988.25
2017-07-30T04:53:11.731Z,988.22
2017-07-30T04:54:11.762Z,988.25
2017-07-30T04:55:11.792Z,988.23
2017-07-30T04:56:11.822Z,988.18
2017-07-30T04:57:11.850Z,988.21
2017-07-30T04:58:11.878Z,988.2
2017-07-30T04:59:11.904Z,988.19
2017-07-30T05:00:11.939Z,988.22
2017-07-30T05:01:11.966Z,988.27
2017-07-30T05:02:11.994Z,988.26
2017-07-30T05:03:12.023Z,988.31
2017-07-30T05:04:12.052Z,988.33
2017-07-30T05:05:12.080Z,988.29
2017-07-30T05:06:12.109Z,988.33
2017-07-30T05:07:12.138Z,988.33
2017-07-30T05:08:12.166Z,988.32
2017-07-30T05:09:12.196Z,988.33
2017-07-30T05:10:12.224Z,988.37
2017-07-30T05:11:12.254Z,988.34
2017-07-30T05:12:12.286Z,988.32
2017-07-30T05:13:12.310Z,988.39
2017-07-30T05:14:12.340Z,988.41
2017-07-30T05:15:12.368Z,988.42
2017-07-30T05:16:12.402Z,988.41
2017-07-30T05:17:12.430Z,988.45
2017-07-30T05:18:12.460Z,988.48
2017-07-30T05:19:12.488Z,988.49
2017-07-30T05:20:12.517Z,988.49
2017-07-30T05:21:12.543Z,988.51
2017-07-30T05:22:12.575Z,988.52
2017-07-30T05:23:12.603Z,988.44
2017-07-30T05:24:12.632Z,988.5
2017-07-30T05:25:12.661Z,988.53
2017-07-30T05:26:12.690Z,988.54
2017-07-30T05:27:12.715Z,988.59
2017-07-30T05:28:12.748Z,988.54
2017-07-30T05:29:12.778Z,988.56
2017-07-30T05:30:12.805Z,988.59
2017-07-30T05:31:12.833Z,988.58
2017-07-30T05:32:12.860Z,988.64
2017-07-30T05:33:12.892Z,988.65
2017-07-30T05:34:12.927Z,988.67
2017-07-30T05:35:12.953Z,988.7
2017-07-30T05:36:12.985Z,988.67
2017-07-30T05:37:13.011Z,988.68
2017-07-30T05:38:13.041Z,988.67
2017-07-30T05:39:13.069Z,988.63
2017-07-30T05:40:13.097Z,988.67
2017-07-30T05:41:13.126Z,988.68
2017-07-30T05:42:13.161Z,988.71
2017-07-30T05:43:13.185Z,988.71
2017-07-30T05:44:13.464Z,988.72
2017-07-30T05:45:13.242Z,988.71
2017-07-30T05:46:13.267Z,988.73
2017-07-30T05:47:13.300Z,988.75
2017-07-30T05:48:13.328Z,988.73
2017-07-30T05:49:13.608Z,988.75
2017-07-30T05:50:13.386Z,988.7
2017-07-30T05:51:13.415Z,988.73
2017-07-30T05:52:13.443Z,988.71
2017-07-30T05:53:13.480Z,988.72
2017-07-30T05:54:13.801Z,988.72
2017-07-30T05:55:13.529Z,988.68
2017-07-30T05:56:13.563Z,988.73
2017-07-30T05:57:13.588Z,988.71
2017-07-30T05:58:13.621Z,988.69
2017-07-30T05:59:13.897Z,988.73
2017-07-30T06:00:13.676Z,988.73
2017-07-30T06:01:13.707Z,988.71
2017-07-30T06:02:13.736Z,988.7
2017-07-30T06:03:13.765Z,988.73
2017-07-30T06:04:14.042Z,988.78
2017-07-30T06:05:13.822Z,988.8
2017-07-30T06:06:13.851Z,988.77
2017-07-30T06:07:13.880Z,988.77
2017-07-30T06:08:13.909Z,988.73
2017-07-30T06:09:14.192Z,988.72
2017-07-30T06:10:13.968Z,988.76
2017-07-30T06:11:13.995Z,988.77
2017-07-30T06:12:14.026Z,988.77
2017-07-30T06:13:14.051Z,988.8
2017-07-30T06:14:14.087Z,988.81
2017-07-30T06:15:14.114Z,988.82
2017-07-30T06:16:14.145Z,988.82
2017-07-30T06:17:14.168Z,988.81
2017-07-30T06:18:14.206Z,988.81
2017-07-30T06:19:14.256Z,988.78
2017-07-30T06:20:14.258Z,988.74
2017-07-30T06:21:14.289Z,988.73
2017-07-30T06:22:14.317Z,988.71
2017-07-30T06:23:14.345Z,988.76
2017-07-30T06:24:14.375Z,988.7
2017-07-30T06:25:14.404Z,988.64
2017-07-30T06:26:14.432Z,988.73
2017-07-30T06:27:14.460Z,988.72
2017-07-30T06:28:14.485Z,988.67
2017-07-30T06:29:14.523Z,988.68
2017-07-30T06:30:14.552Z,988.71
2017-07-30T06:31:14.579Z,988.73
2017-07-30T06:32:14.605Z,988.77
2017-07-30T06:33:14.638Z,988.71
2017-07-30T06:34:14.669Z,988.77
2017-07-30T06:35:14.696Z,988.81
2017-07-30T06:36:14.724Z,988.79
2017-07-30T06:37:14.754Z,988.77
2017-07-30T06:38:14.783Z,988.76
2017-07-30T06:39:14.807Z,988.78
2017-07-30T06:40:14.839Z,988.78
2017-07-30T06:41:14.868Z,988.78
2017-07-30T06:42:14.901Z,988.81
2017-07-30T06:43:14.930Z,988.8
2017-07-30T06:44:14.959Z,988.78
2017-07-30T06:45:14.987Z,988.8
2017-07-30T06:46:15.014Z,988.81
2017-07-30T06:47:15.037Z,988.84
2017-07-30T06:48:15.074Z,988.83
2017-07-30T06:49:15.106Z,988.83
2017-07-30T06:50:15.132Z,988.82
2017-07-30T06:51:15.156Z,988.85
2017-07-30T06:52:15.189Z,988.84
2017-07-30T06:53:15.218Z,988.9
2017-07-30T06:54:15.251Z,988.9
2017-07-30T06:55:15.279Z,988.93
2017-07-30T06:56:15.310Z,988.94
2017-07-30T06:57:15.337Z,988.98
2017-07-30T06:58:15.369Z,988.94
2017-07-30T06:59:15.395Z,988.96
2017-07-30T07:00:15.424Z,988.93
2017-07-30T07:01:15.450Z,988.86
2017-07-30T07:02:15.482Z,988.84
2017-07-30T07:03:15.511Z,988.87
2017-07-30T07:04:15.540Z,988.85
2017-07-30T07:05:15.573Z,988.84
2017-07-30T07:06:15.602Z,988.92
2017-07-30T07:07:15.625Z,988.89
2017-07-30T07:08:15.657Z,988.92
2017-07-30T07:09:15.686Z,988.86
2017-07-30T07:10:15.713Z,988.87
2017-07-30T07:11:15.745Z,988.91
2017-07-30T07:12:15.774Z,988.92
2017-07-30T07:13:15.802Z,988.95
2017-07-30T07:14:15.831Z,988.98
2017-07-30T07:15:15.863Z,988.97
2017-07-30T07:16:15.893Z,988.92
2017-07-30T07:17:15.923Z,988.98
2017-07-30T07:18:15.950Z,989.04
2017-07-30T07:19:16.001Z,988.99
2017-07-30T07:20:16.009Z,988.96
2017-07-30T07:21:16.038Z,989.02
2017-07-30T07:22:16.067Z,988.98
2017-07-30T07:23:16.105Z,989.02
2017-07-30T07:24:16.128Z,989.03
2017-07-30T07:25:16.157Z,988.99
2017-07-30T07:26:16.191Z,989.1
2017-07-30T07:27:16.215Z,989
2017-07-30T07:28:16.244Z,989.1
2017-07-30T07:29:16.272Z,989.15
2017-07-30T07:30:16.301Z,989.21
2017-07-30T07:31:16.333Z,989.26
2017-07-30T07:32:16.362Z,989.21
2017-07-30T07:33:16.388Z,989.18
2017-07-30T07:34:16.420Z,989.15
2017-07-30T07:35:16.449Z,989.16
2017-07-30T07:36:16.479Z,989.15
2017-07-30T07:37:16.508Z,989.2
2017-07-30T07:38:16.536Z,989.21
2017-07-30T07:39:16.571Z,989.24
2017-07-30T07:40:16.597Z,989.21
2017-07-30T07:41:16.626Z,989.26
2017-07-30T07:42:16.660Z,989.24
2017-07-30T07:43:16.689Z,989.35
2017-07-30T07:44:16.713Z,989.31
2017-07-30T07:45:16.746Z,989.3
2017-07-30T07:46:16.774Z,989.34
2017-07-30T07:47:16.799Z,989.34
2017-07-30T07:48:16.832Z,989.36
2017-07-30T07:49:16.862Z,989.32
2017-07-30T07:50:16.890Z,989.38
2017-07-30T07:51:16.923Z,989.37
2017-07-30T07:52:16.950Z,989.35
2017-07-30T07:53:16.984Z,989.44
2017-07-30T07:54:17.012Z,989.47
2017-07-30T07:55:17.043Z,989.41
2017-07-30T07:56:17.067Z,989.42
2017-07-30T07:57:17.100Z,989.27
2017-07-30T07:58:17.129Z,989.47
2017-07-30T07:59:17.158Z,989.45
2017-07-30T08:00:17.186Z,989.36
2017-07-30T08:01:17.211Z,989.39
2017-07-30T08:02:17.245Z,989.4
2017-07-30T08:03:17.276Z,989.41
2017-07-30T08:04:17.305Z,989.36
2017-07-30T08:05:17.334Z,989.37
2017-07-30T08:06:17.363Z,989.4
2017-07-30T08:07:17.420Z,989.39
2017-07-30T08:08:17.420Z,989.42
2017-07-30T08:09:17.452Z,989.47
2017-07-30T08:10:17.483Z,989.47
2017-07-30T08:11:17.510Z,989.52
2017-07-30T08:12:17.544Z,989.53
2017-07-30T08:13:17.574Z,989.6
2017-07-30T08:14:17.601Z,989.5
2017-07-30T08:15:17.629Z,989.63
2017-07-30T08:16:17.660Z,989.62
2017-07-30T08:17:17.690Z,989.64
2017-07-30T08:18:17.722Z,989.64
2017-07-30T08:19:17.745Z,989.68
2017-07-30T08:20:18.032Z,989.72
2017-07-30T08:21:17.809Z,989.72
2017-07-30T08:22:17.838Z,989.71
2017-07-30T08:23:17.872Z,989.74
2017-07-30T08:24:17.890Z,989.74
2017-07-30T08:25:18.178Z,989.8
2017-07-30T08:26:17.957Z,989.8
2017-07-30T08:27:17.986Z,989.76
2017-07-30T08:28:18.013Z,989.76
2017-07-30T08:29:18.042Z,989.74
2017-07-30T08:30:18.089Z,989.62
2017-07-30T08:31:18.103Z,989.69
2017-07-30T08:32:18.135Z,989.64
2017-07-30T08:33:18.161Z,989.62
2017-07-30T08:34:18.192Z,989.59
2017-07-30T08:35:18.224Z,989.6
2017-07-30T08:36:18.252Z,989.59
2017-07-30T08:37:18.282Z,989.48
2017-07-30T08:38:18.312Z,989.38
2017-07-30T08:39:18.340Z,989.4
2017-07-30T08:40:18.373Z,989.33
2017-07-30T08:41:18.399Z,989.29
2017-07-30T08:42:18.429Z,989.16
2017-07-30T08:43:18.459Z,989.17
2017-07-30T08:44:18.488Z,989.13
2017-07-30T08:45:18.516Z,989.12
2017-07-30T08:46:18.549Z,989.22
2017-07-30T08:47:18.572Z,989.18
2017-07-30T08:48:18.603Z,989.05
2017-07-30T08:49:18.636Z,989.04
2017-07-30T08:50:18.669Z,989.06
2017-07-30T08:51:18.693Z,989.15
2017-07-30T08:52:18.734Z,989.12
2017-07-30T08:53:18.755Z,989.11
2017-07-30T08:54:18.784Z,989.09
2017-07-30T08:55:18.816Z,989.02
2017-07-30T08:56:18.845Z,989.04
2017-07-30T08:57:18.873Z,989.07
2017-07-30T08:58:18.907Z,989.02
2017-07-30T08:59:18.934Z,988.96
2017-07-30T09:00:18.960Z,989.01
2017-07-30T09:01:18.993Z,989.08
2017-07-30T09:02:19.023Z,989
2017-07-30T09:03:19.055Z,989.14
2017-07-30T09:04:19.084Z,989.25
2017-07-30T09:05:19.112Z,989.36
2017-07-30T09:06:19.142Z,989.33
2017-07-30T09:07:19.170Z,989.43
2017-07-30T09:08:19.201Z,989.35
2017-07-30T09:09:19.233Z,989.46
2017-07-30T09:10:19.261Z,989.42
2017-07-30T09:11:19.290Z,989.39
2017-07-30T09:12:19.320Z,989.33
2017-07-30T09:13:19.352Z,989.32
2017-07-30T09:14:19.381Z,989.38
2017-07-30T09:15:19.411Z,989.32
2017-07-30T09:16:19.440Z,989.32
2017-07-30T09:17:19.472Z,989.38
2017-07-30T09:18:19.499Z,989.45
2017-07-30T09:19:19.529Z,989.45
2017-07-30T09:20:19.558Z,989.53
2017-07-30T09:21:19.586Z,989.6
2017-07-30T09:22:19.614Z,989.68
2017-07-30T09:23:19.652Z,989.76
2017-07-30T09:24:19.676Z,989.74
2017-07-30T09:25:19.705Z,989.76
2017-07-30T09:26:19.734Z,989.74
2017-07-30T09:27:19.767Z,989.78
2017-07-30T09:28:19.796Z,989.73
2017-07-30T09:29:19.825Z,989.76
2017-07-30T09:30:19.853Z,989.79
2017-07-30T09:31:19.889Z,989.76
2017-07-30T09:32:19.922Z,989.8
2017-07-30T09:33:19.947Z,989.81
2017-07-30T09:34:19.978Z,989.75
2017-07-30T09:35:20.007Z,989.83
2017-07-30T09:36:20.035Z,989.88
2017-07-30T09:37:20.060Z,989.82
2017-07-30T09:38:20.098Z,989.74
2017-07-30T09:39:20.124Z,989.68
2017-07-30T09:40:20.152Z,989.7
2017-07-30T09:41:20.183Z,989.58
2017-07-30T09:42:20.216Z,989.42
2017-07-30T09:43:20.242Z,989.43
2017-07-30T09:44:20.275Z,989.45
2017-07-30T09:45:20.306Z,989.43
2017-07-30T09:46:20.595Z,989.42
2017-07-30T09:47:20.364Z,989.53
2017-07-30T09:48:20.391Z,989.49
2017-07-30T09:49:20.422Z,989.5
2017-07-30T09:50:20.452Z,989.41
2017-07-30T09:51:20.734Z,989.42
2017-07-30T09:52:20.513Z,989.34
2017-07-30T09:53:20.541Z,989.43
2017-07-30T09:54:20.572Z,989.72
2017-07-30T09:55:20.600Z,989.74
2017-07-30T09:56:20.882Z,989.67
2017-07-30T09:57:20.665Z,989.56
2017-07-30T09:58:20.690Z,989.69
2017-07-30T09:59:20.722Z,989.75
2017-07-30T10:00:20.751Z,989.96
2017-07-30T10:01:21.085Z,990.02
2017-07-30T10:02:20.808Z,989.97
2017-07-30T10:03:20.833Z,990.03
2017-07-30T10:04:20.867Z,990.17
2017-07-30T10:05:20.903Z,990.19
2017-07-30T10:06:21.184Z,990.16
2017-07-30T10:07:20.960Z,990.18
2017-07-30T10:08:20.994Z,990.12
2017-07-30T10:09:21.024Z,990.04
2017-07-30T10:10:21.051Z,990.06
2017-07-30T10:11:21.083Z,990.17
2017-07-30T10:12:21.113Z,990.26
2017-07-30T10:13:21.138Z,990.29
2017-07-30T10:14:21.172Z,990.33
2017-07-30T10:15:21.200Z,990.34
2017-07-30T10:16:21.229Z,990.34
2017-07-30T10:17:21.261Z,990.32
2017-07-30T10:18:21.290Z,990.28
2017-07-30T10:19:21.330Z,990.21
2017-07-30T10:20:21.351Z,990.18
2017-07-30T10:21:21.375Z,990.15
2017-07-30T10:22:21.408Z,990.17
2017-07-30T10:23:21.443Z,990.21
2017-07-30T10:24:21.468Z,990.21
2017-07-30T10:25:21.496Z,990.22
2017-07-30T10:26:21.528Z,990.16
2017-07-30T10:27:21.557Z,990.23
2017-07-30T10:28:21.593Z,990.29
2017-07-30T10:29:21.615Z,990.3
2017-07-30T10:30:21.645Z,990.37
2017-07-30T10:31:21.674Z,990.33
2017-07-30T10:32:21.707Z,990.33
2017-07-30T10:33:21.739Z,990.37
2017-07-30T10:34:21.767Z,990.45
2017-07-30T10:35:21.791Z,990.46
2017-07-30T10:36:21.821Z,990.39
2017-07-30T10:37:21.854Z,990.3
2017-07-30T10:38:21.885Z,990.28
2017-07-30T10:39:21.915Z,990.19
2017-07-30T10:40:21.944Z,990.18
2017-07-30T10:41:21.973Z,990.19
2017-07-30T10:42:22.003Z,990.28
2017-07-30T10:43:22.032Z,990.32
2017-07-30T10:44:22.065Z,990.32
2017-07-30T10:45:22.092Z,990.22
2017-07-30T10:46:22.121Z,990.2
2017-07-30T10:47:22.154Z,990.24
2017-07-30T10:48:22.182Z,990.33
2017-07-30T10:49:22.217Z,990.25
2017-07-30T10:50:22.238Z,990.17
2017-07-30T10:51:22.265Z,990.17
2017-07-30T10:52:22.298Z,990.18
2017-07-30T10:53:22.335Z,990.19
2017-07-30T10:54:22.366Z,990.19
2017-07-30T10:55:22.393Z,990.16
2017-07-30T10:56:22.423Z,990.17
2017-07-30T10:57:22.454Z,990.19
2017-07-30T10:58:22.565Z,990.13
2017-07-30T10:59:22.508Z,990.15
2017-07-30T11:00:22.541Z,990.16
2017-07-30T11:01:22.571Z,990.08
2017-07-30T11:02:22.607Z,990.01
2017-07-30T11:03:22.627Z,990.06
2017-07-30T11:04:22.663Z,990.08
2017-07-30T11:05:22.693Z,990.05
2017-07-30T11:06:22.725Z,990.06
2017-07-30T11:07:22.750Z,990.05
2017-07-30T11:08:22.778Z,990
2017-07-30T11:09:22.807Z,989.99
2017-07-30T11:10:22.836Z,989.91
2017-07-30T11:11:22.870Z,989.85
2017-07-30T11:12:22.896Z,989.79
2017-07-30T11:13:22.928Z,989.81
2017-07-30T11:14:22.961Z,989.85
2017-07-30T11:15:22.991Z,989.88
2017-07-30T11:16:23.018Z,989.86
2017-07-30T11:17:23.051Z,989.9
2017-07-30T11:18:23.079Z,989.91
2017-07-30T11:19:23.104Z,989.95
2017-07-30T11:20:23.137Z,989.92
2017-07-30T11:21:23.166Z,989.89
2017-07-30T11:22:23.199Z,989.89
2017-07-30T11:23:23.228Z,989.9
2017-07-30T11:24:23.257Z,989.92
2017-07-30T11:25:23.287Z,990.03
2017-07-30T11:26:23.317Z,990.01
2017-07-30T11:27:23.345Z,990.04
2017-07-30T11:28:23.381Z,990
2017-07-30T11:29:23.408Z,989.97
2017-07-30T11:30:23.433Z,989.91
2017-07-30T11:31:23.479Z,989.96
2017-07-30T11:32:23.499Z,989.96
2017-07-30T11:33:23.528Z,990.02
2017-07-30T11:34:23.559Z,990.04
2017-07-30T11:35:23.589Z,990.12
2017-07-30T11:36:23.620Z,990.17
2017-07-30T11:37:23.651Z,990.19
2017-07-30T11:38:23.680Z,990.18
2017-07-30T11:39:23.709Z,990.17
2017-07-30T11:40:23.743Z,990.15
2017-07-30T11:41:23.771Z,990.09
2017-07-30T11:42:23.802Z,990.12
2017-07-30T11:43:23.827Z,990.18
2017-07-30T11:44:23.861Z,990.15
2017-07-30T11:45:23.891Z,990.12
2017-07-30T11:46:23.911Z,990.16
2017-07-30T11:47:23.950Z,990.17
2017-07-30T11:48:23.976Z,990.22
2017-07-30T11:49:24.005Z,990.17
2017-07-30T11:50:24.041Z,990.17
2017-07-30T11:51:24.070Z,990.2
2017-07-30T11:52:24.099Z,990.17
2017-07-30T11:53:24.127Z,990.18
2017-07-30T11:54:24.162Z,990.19
2017-07-30T11:55:24.194Z,990.21
2017-07-30T11:56:24.214Z,990.19
2017-07-30T11:57:24.251Z,990.23
2017-07-30T11:58:24.280Z,990.18
2017-07-30T11:59:24.342Z,990.23
2017-07-30T12:00:24.341Z,990.21
2017-07-30T12:01:24.420Z,990.22
2017-07-30T12:02:24.401Z,990.3
2017-07-30T12:03:24.432Z,990.31
2017-07-30T12:04:24.462Z,990.38
2017-07-30T12:05:24.490Z,990.34
2017-07-30T12:06:24.519Z,990.37
2017-07-30T12:07:24.804Z,990.31
2017-07-30T12:08:24.580Z,990.28
2017-07-30T12:09:24.613Z,990.29
2017-07-30T12:10:24.642Z,990.35
2017-07-30T12:11:24.672Z,990.34
2017-07-30T12:12:24.962Z,990.37
2017-07-30T12:13:24.733Z,990.39
2017-07-30T12:14:24.762Z,990.41
2017-07-30T12:15:24.795Z,990.46
2017-07-30T12:16:24.824Z,990.46
2017-07-30T12:17:25.107Z,990.47
2017-07-30T12:18:24.882Z,990.45
2017-07-30T12:19:24.916Z,990.5
2017-07-30T12:20:24.945Z,990.49
2017-07-30T12:21:24.975Z,990.47
2017-07-30T12:22:25.263Z,990.55
2017-07-30T12:23:25.034Z,990.55
2017-07-30T12:24:25.066Z,990.54
2017-07-30T12:25:25.093Z,990.57
2017-07-30T12:26:25.125Z,990.65
2017-07-30T12:27:25.415Z,990.67
2017-07-30T12:28:25.185Z,990.63
2017-07-30T12:29:25.215Z,990.69
2017-07-30T12:30:25.247Z,990.65
2017-07-30T12:31:25.276Z,990.64